createdAt,value
2022-11-16T00:01:44.333Z,224.50
2022-11-16T00:04:14.195Z,229.70
2022-11-16T00:06:42.008Z,227.38
2022-11-16T00:09:26.858Z,238.45
2022-11-16T00:11:57.323Z,244.98
2022-11-16T00:14:27.586Z,247.70
2022-11-16T00:16:56.271Z,221.80
2022-11-16T00:19:26.775Z,214.85
2022-11-16T00:21:54.987Z,231.07
2022-11-16T00:24:24.687Z,240.27
2022-11-16T00:26:54.810Z,250.75
2022-11-16T00:29:25.033Z,236.57
2022-11-16T00:31:53.729Z,256.25
2022-11-16T00:34:22.326Z,235.77
2022-11-16T00:36:51.990Z,225.10
2022-11-16T00:39:20.911Z,263.20
2022-11-16T00:41:49.188Z,278.88
2022-11-16T00:44:17.998Z,287.52
2022-11-16T00:46:46.440Z,203.90
2022-11-16T00:49:14.492Z,244.25
2022-11-16T00:51:42.727Z,228.18
2022-11-16T00:54:12.376Z,237.80
2022-11-16T00:56:40.451Z,245.85
2022-11-16T00:59:09.072Z,224.15
2022-11-16T01:01:37.151Z,206.82
2022-11-16T01:04:05.518Z,190.57
2022-11-16T01:06:33.480Z,171.50
2022-11-16T01:09:02.011Z,181.95
2022-11-16T01:11:48.536Z,183.73
2022-11-16T01:14:17.335Z,181.95
2022-11-16T01:16:45.205Z,197.27
2022-11-16T01:19:13.299Z,194.75
2022-11-16T01:21:41.393Z,230.10
2022-11-16T01:24:09.521Z,223.32
2022-11-16T01:26:38.804Z,219.20
2022-11-16T01:29:07.392Z,234.80
2022-11-16T01:31:35.209Z,218.10
2022-11-16T01:34:03.249Z,219.10
2022-11-16T01:36:31.500Z,208.60
2022-11-16T01:38:59.719Z,205.68
2022-11-16T01:41:28.163Z,211.38
2022-11-16T01:44:00.200Z,216.38
2022-11-16T01:46:29.687Z,215.82
2022-11-16T01:49:02.868Z,229.93
2022-11-16T01:51:30.962Z,242.02
2022-11-16T01:54:02.354Z,265.50
2022-11-16T01:56:32.560Z,313.77
2022-11-16T01:59:02.491Z,368.63
2022-11-16T02:01:30.397Z,246.95
2022-11-16T02:03:58.506Z,238.05
2022-11-16T02:06:37.317Z,294.13
2022-11-16T02:09:42.849Z,257.25
2022-11-16T02:12:32.126Z,706.15
2022-11-16T02:15:12.975Z,396.60
2022-11-16T02:17:50.560Z,287.23
2022-11-16T02:20:43.555Z,175.70
2022-11-16T02:23:51.923Z,167.07
2022-11-16T02:26:36.255Z,206.20
2022-11-16T02:29:22.375Z,231.00
2022-11-16T02:31:57.132Z,188.18
2022-11-16T02:34:29.471Z,200.00
2022-11-16T02:37:00.448Z,220.88
2022-11-16T02:39:30.911Z,217.52
2022-11-16T02:42:00.706Z,299.20
2022-11-16T02:44:33.833Z,229.85
2022-11-16T02:47:06.659Z,219.80
2022-11-16T02:49:37.416Z,223.25
2022-11-16T02:52:06.093Z,236.02
2022-11-16T02:54:33.877Z,238.75
2022-11-16T02:57:29.508Z,297.23
2022-11-16T03:00:00.142Z,212.60
2022-11-16T03:02:33.722Z,224.57
2022-11-16T03:05:08.128Z,237.57
2022-11-16T03:07:43.370Z,315.45
2022-11-16T03:10:32.090Z,232.35
2022-11-16T03:13:02.310Z,224.48
2022-11-16T03:15:32.236Z,264.10
2022-11-16T03:18:01.607Z,184.95
2022-11-16T03:20:34.112Z,194.35
2022-11-16T03:23:05.892Z,196.45
2022-11-16T03:25:39.704Z,209.82
2022-11-16T03:28:13.305Z,209.35
2022-11-16T03:30:50.650Z,186.90
2022-11-16T03:33:23.132Z,192.77
2022-11-16T03:35:57.356Z,172.40
2022-11-16T03:38:28.318Z,192.93
2022-11-16T03:41:00.333Z,222.63
2022-11-16T03:43:29.470Z,349.15
2022-11-16T03:45:58.888Z,454.50
2022-11-16T03:48:27.162Z,645.47
2022-11-16T03:50:55.016Z,779.35
2022-11-16T03:53:22.969Z,1198.00
2022-11-16T03:55:50.792Z,1193.97
2022-11-16T03:58:18.950Z,975.75
2022-11-16T04:00:46.843Z,1103.90
2022-11-16T04:03:16.333Z,483.40
2022-11-16T04:06:02.072Z,552.97
2022-11-16T04:08:44.103Z,491.35
2022-11-16T04:11:31.804Z,500.65
2022-11-16T04:14:17.787Z,284.15
2022-11-16T04:17:03.384Z,317.80
2022-11-16T04:19:54.036Z,352.73
2022-11-16T04:22:47.098Z,458.15
2022-11-16T04:25:19.666Z,455.35
2022-11-16T04:28:05.716Z,1010.70
2022-11-16T04:30:56.318Z,861.83
2022-11-16T04:33:41.767Z,1210.90
2022-11-16T04:36:29.044Z,1252.53
2022-11-16T04:38:56.888Z,986.83
2022-11-16T04:41:42.563Z,893.85
2022-11-16T04:44:10.460Z,1088.32
2022-11-16T04:46:56.135Z,1159.78
2022-11-16T04:49:24.020Z,940.63
2022-11-16T04:51:53.500Z,1114.07
2022-11-16T04:54:21.249Z,777.05
2022-11-16T04:56:49.425Z,1113.85
2022-11-16T04:59:17.391Z,1034.95
2022-11-16T05:02:03.328Z,863.70
2022-11-16T05:04:31.687Z,689.22
2022-11-16T05:07:01.084Z,724.50
2022-11-16T05:09:28.844Z,709.10
2022-11-16T05:11:57.238Z,828.95
2022-11-16T05:14:24.950Z,548.28
2022-11-16T05:16:52.932Z,771.22
2022-11-16T05:19:38.427Z,680.72
2022-11-16T05:22:07.735Z,788.08
2022-11-16T05:24:35.799Z,646.40
2022-11-16T05:27:05.544Z,576.75
2022-11-16T05:29:33.418Z,497.23
2022-11-16T05:32:02.483Z,398.08
2022-11-16T05:34:30.299Z,620.88
2022-11-16T05:36:58.456Z,865.67
2022-11-16T05:39:28.205Z,987.65
2022-11-16T05:41:57.189Z,906.78
2022-11-16T05:44:25.350Z,837.30
2022-11-16T05:46:55.131Z,1148.93
2022-11-16T05:49:23.370Z,1124.35
2022-11-16T05:51:51.916Z,1288.57
2022-11-16T05:54:22.147Z,702.17
2022-11-16T05:56:51.776Z,1237.28
2022-11-16T05:59:21.852Z,634.63
2022-11-16T06:01:50.351Z,834.35
2022-11-16T06:04:24.352Z,799.50
2022-11-16T06:06:53.334Z,590.60
2022-11-16T06:09:21.249Z,496.45
2022-11-16T06:11:49.320Z,817.25
2022-11-16T06:14:18.499Z,753.10
2022-11-16T06:16:46.575Z,647.08
2022-11-16T06:19:14.239Z,415.23
2022-11-16T06:21:42.387Z,613.00
2022-11-16T06:24:10.203Z,667.88
2022-11-16T06:26:38.423Z,474.20
2022-11-16T06:29:06.249Z,751.92
2022-11-16T06:31:35.710Z,913.15
2022-11-16T06:34:03.447Z,1112.82
2022-11-16T06:36:32.030Z,1312.10
2022-11-16T06:39:00.975Z,1259.50
2022-11-16T06:41:28.964Z,975.78
2022-11-16T06:43:56.813Z,1404.32
2022-11-16T06:46:25.512Z,890.80
2022-11-16T06:48:54.577Z,757.50
2022-11-16T06:51:22.712Z,588.30
2022-11-16T06:53:50.804Z,263.83
2022-11-16T06:56:19.462Z,414.20
2022-11-16T06:58:47.338Z,238.13
2022-11-16T07:01:15.484Z,708.08
2022-11-16T07:03:43.216Z,697.15
2022-11-16T07:06:14.129Z,427.52
2022-11-16T07:08:42.029Z,451.42
2022-11-16T07:11:11.645Z,645.65
2022-11-16T07:13:40.023Z,440.90
2022-11-16T07:16:09.934Z,447.50
2022-11-16T07:18:39.288Z,390.90
2022-11-16T07:21:07.931Z,294.48
2022-11-16T07:23:37.591Z,329.58
2022-11-16T07:26:07.119Z,385.90
2022-11-16T07:28:35.381Z,243.23
2022-11-16T07:31:04.443Z,266.25
2022-11-16T07:33:32.313Z,252.07
2022-11-16T07:36:02.945Z,219.50
2022-11-16T07:38:32.056Z,189.63
2022-11-16T07:41:02.695Z,184.30
2022-11-16T07:43:31.657Z,198.25
2022-11-16T07:46:30.309Z,207.68
2022-11-16T07:48:51.069Z,225.40
2022-11-16T07:51:20.200Z,185.52
2022-11-16T07:53:47.908Z,207.52
2022-11-16T07:56:17.455Z,261.42
2022-11-16T07:58:45.639Z,220.80
2022-11-16T08:01:16.513Z,173.38
2022-11-16T08:03:46.492Z,195.52
2022-11-16T08:06:17.757Z,184.88
2022-11-16T08:08:45.672Z,190.40
2022-11-16T08:11:14.084Z,239.85
2022-11-16T08:13:44.269Z,198.43
2022-11-16T08:16:14.676Z,219.35
2022-11-16T08:18:43.276Z,283.83
2022-11-16T08:21:13.815Z,238.65
2022-11-16T08:23:41.919Z,248.57
2022-11-16T08:26:14.300Z,280.27
2022-11-16T08:28:44.783Z,233.60
2022-11-16T08:31:15.428Z,330.40
2022-11-16T08:33:43.428Z,373.20
2022-11-16T08:36:17.035Z,405.35
2022-11-16T08:38:45.652Z,447.42
2022-11-16T08:41:13.907Z,329.00
2022-11-16T08:43:44.532Z,485.95
2022-11-16T08:46:12.751Z,531.47
2022-11-16T08:48:41.019Z,621.40
2022-11-16T08:51:17.334Z,701.10
2022-11-16T08:53:48.063Z,605.40
2022-11-16T08:56:18.314Z,589.47
2022-11-16T08:58:50.395Z,333.92
2022-11-16T09:01:21.907Z,352.33
2022-11-16T09:03:49.830Z,219.82
2022-11-16T09:06:18.087Z,695.78
2022-11-16T09:08:47.676Z,167.32
2022-11-16T09:11:17.891Z,208.00
2022-11-16T09:13:47.941Z,236.25
2022-11-16T09:16:16.948Z,203.88
2022-11-16T09:18:46.302Z,300.40
2022-11-16T09:21:18.022Z,211.32
2022-11-16T09:23:46.256Z,200.00
2022-11-16T09:26:14.520Z,218.90
2022-11-16T09:28:42.240Z,275.85
2022-11-16T09:31:11.766Z,278.58
2022-11-16T09:33:39.496Z,267.00
2022-11-16T09:36:09.947Z,247.80
2022-11-16T09:39:13.987Z,219.82
2022-11-16T09:41:48.260Z,200.98
2022-11-16T09:44:35.403Z,182.23
2022-11-16T09:47:09.345Z,187.15
2022-11-16T09:49:43.383Z,183.32
2022-11-16T09:52:21.817Z,177.32
2022-11-16T09:54:51.018Z,184.68
2022-11-16T09:57:25.148Z,141.55
2022-11-16T09:59:58.203Z,126.80
2022-11-16T10:02:31.926Z,119.63
2022-11-16T10:05:04.856Z,128.90
2022-11-16T10:07:38.150Z,134.07
2022-11-16T10:10:07.212Z,126.75
2022-11-16T10:12:43.517Z,110.43
2022-11-16T10:15:41.361Z,105.82
2022-11-16T10:18:21.888Z,80.57
2022-11-16T10:21:18.831Z,75.78
2022-11-16T10:24:05.662Z,67.18
2022-11-16T10:26:41.830Z,62.50
2022-11-16T10:29:22.485Z,59.35
2022-11-16T10:32:13.568Z,69.22
2022-11-16T10:34:52.148Z,65.78
2022-11-16T10:37:21.168Z,80.28
2022-11-16T10:39:51.144Z,93.05
2022-11-16T10:42:24.053Z,81.68
2022-11-16T10:44:57.949Z,88.95
2022-11-16T10:47:33.923Z,79.47
2022-11-16T10:50:16.658Z,179.05
2022-11-16T10:52:44.464Z,79.20
2022-11-16T10:55:15.748Z,74.22
2022-11-16T10:57:58.189Z,80.18
2022-11-16T11:00:42.228Z,71.13
2022-11-16T11:03:11.835Z,77.45
2022-11-16T11:05:52.302Z,80.80
2022-11-16T11:08:27.550Z,88.28
2022-11-16T11:11:01.771Z,73.82
2022-11-16T11:13:29.673Z,64.57
2022-11-16T11:16:16.987Z,63.22
2022-11-16T11:18:44.721Z,70.80
2022-11-16T11:21:20.111Z,77.72
2022-11-16T11:23:50.872Z,66.65
2022-11-16T11:26:36.521Z,77.25
2022-11-16T11:29:16.751Z,70.85
2022-11-16T11:31:48.463Z,76.95
2022-11-16T11:34:19.919Z,72.77
2022-11-16T11:36:53.260Z,74.95
2022-11-16T11:39:36.315Z,79.57
2022-11-16T11:42:20.581Z,81.60
2022-11-16T11:44:54.425Z,80.57
2022-11-16T11:50:25.737Z,77.68
2022-11-16T11:53:04.212Z,77.80
2022-11-16T11:55:32.208Z,70.70
2022-11-16T11:58:02.946Z,82.18
2022-11-16T12:00:39.192Z,75.15
2022-11-16T12:03:30.824Z,113.05
2022-11-16T12:06:08.606Z,102.45
2022-11-16T12:08:59.984Z,81.00
2022-11-16T12:11:34.785Z,68.20
2022-11-16T12:14:23.381Z,77.03
2022-11-16T12:17:02.430Z,59.97
2022-11-16T12:19:56.229Z,64.57
2022-11-16T12:22:43.829Z,66.43
2022-11-16T12:25:25.897Z,73.57
2022-11-16T12:28:16.223Z,69.57
2022-11-16T12:30:54.924Z,85.85
2022-11-16T12:33:32.860Z,92.32
2022-11-16T12:36:05.717Z,88.38
2022-11-16T12:41:38.452Z,64.43
2022-11-16T12:44:09.582Z,70.82
2022-11-16T12:46:50.403Z,62.47
2022-11-16T12:49:39.780Z,95.78
2022-11-16T12:52:23.051Z,73.95
2022-11-16T12:55:27.585Z,85.13
2022-11-16T12:58:08.521Z,70.32
2022-11-16T13:00:53.907Z,63.50
2022-11-16T13:03:28.970Z,79.88
2022-11-16T13:06:01.408Z,85.15
2022-11-16T13:08:50.944Z,106.38
2022-11-16T13:11:23.828Z,46.97
2022-11-16T13:13:58.005Z,44.85
2022-11-16T13:16:26.933Z,38.03
2022-11-16T13:18:55.949Z,27.90
2022-11-16T13:21:34.827Z,21.33
2022-11-16T13:24:32.274Z,22.90
2022-11-16T13:27:14.903Z,18.98
2022-11-16T13:29:49.944Z,19.88
2022-11-16T13:32:24.344Z,16.58
2022-11-16T13:34:53.296Z,21.20
2022-11-16T13:37:43.872Z,17.00
2022-11-16T13:40:22.656Z,15.32
2022-11-16T13:43:19.220Z,14.82
2022-11-16T13:45:58.668Z,14.57
2022-11-16T13:48:33.264Z,14.95
2022-11-16T13:51:04.153Z,16.13
2022-11-16T13:56:28.607Z,13.52
2022-11-16T13:58:59.452Z,12.40
2022-11-16T14:01:57.436Z,12.27
2022-11-16T14:04:50.753Z,7.63
2022-11-16T14:07:30.328Z,8.45
2022-11-16T14:09:58.705Z,6.78
2022-11-16T14:12:51.491Z,12.13
2022-11-16T14:15:21.898Z,8.02
2022-11-16T14:17:54.625Z,7.68
2022-11-16T14:23:12.885Z,6.45
2022-11-16T14:25:47.090Z,12.70
2022-11-16T14:28:32.267Z,8.23
2022-11-16T14:31:14.113Z,8.73
2022-11-16T14:33:44.233Z,15.55
2022-11-16T14:36:12.467Z,11.65
2022-11-16T14:38:43.620Z,8.23
2022-11-16T14:41:25.528Z,11.77
2022-11-16T14:43:56.256Z,11.10
2022-11-16T14:46:28.009Z,8.80
2022-11-16T14:48:59.357Z,8.50
2022-11-16T14:51:31.098Z,8.52
2022-11-16T14:54:02.946Z,9.15
2022-11-16T14:56:30.918Z,9.35
2022-11-16T14:59:00.555Z,8.95
2022-11-16T15:01:30.436Z,8.82
2022-11-16T15:04:03.270Z,8.95
2022-11-16T15:06:36.680Z,8.77
2022-11-16T15:09:06.327Z,11.55
2022-11-16T15:11:56.899Z,12.95
2022-11-16T15:14:28.385Z,14.35
2022-11-16T15:16:57.578Z,11.35
2022-11-16T15:19:30.435Z,14.05
2022-11-16T15:22:00.332Z,9.45
2022-11-16T15:24:31.547Z,13.13
2022-11-16T15:27:10.768Z,14.15
2022-11-16T15:29:39.793Z,11.85
2022-11-16T15:32:13.850Z,12.82
2022-11-16T15:34:43.877Z,28.35
2022-11-16T15:37:15.099Z,21.80
2022-11-16T15:39:44.159Z,18.02
2022-11-16T15:42:16.814Z,33.85
2022-11-16T15:44:45.709Z,34.13
2022-11-16T15:47:14.950Z,16.35
2022-11-16T15:49:49.700Z,12.63
2022-11-16T15:52:45.128Z,11.80
2022-11-16T15:55:25.048Z,12.02
2022-11-16T15:58:01.727Z,12.40
2022-11-16T16:00:31.683Z,13.90
2022-11-16T16:03:06.079Z,11.80
2022-11-16T16:05:37.124Z,19.35
2022-11-16T16:08:06.795Z,22.92
2022-11-16T16:10:34.811Z,15.02
2022-11-16T16:13:03.999Z,39.63
2022-11-16T16:15:36.041Z,15.32
2022-11-16T16:18:11.900Z,13.77
2022-11-16T16:20:48.248Z,14.38
2022-11-16T16:23:16.805Z,13.32
2022-11-16T16:25:50.242Z,14.80
2022-11-16T16:28:18.525Z,15.35
2022-11-16T16:30:46.681Z,22.02
2022-11-16T16:33:19.531Z,28.85
2022-11-16T16:35:49.784Z,24.23
2022-11-16T16:38:17.834Z,21.38
2022-11-16T16:40:45.895Z,20.33
2022-11-16T16:43:13.723Z,19.42
2022-11-16T16:45:43.768Z,18.77
2022-11-16T16:48:12.687Z,25.63
2022-11-16T16:50:41.235Z,28.52
2022-11-16T16:53:13.200Z,20.75
2022-11-16T16:55:41.846Z,23.60
2022-11-16T16:58:13.229Z,20.15
2022-11-16T17:00:42.010Z,23.35
2022-11-16T17:03:10.245Z,18.75
2022-11-16T17:05:38.886Z,15.80
2022-11-16T17:08:07.226Z,17.35
2022-11-16T17:10:38.408Z,16.30
2022-11-16T17:13:06.256Z,15.82
2022-11-16T17:15:34.441Z,17.58
2022-11-16T17:18:02.594Z,22.20
2022-11-16T17:20:30.712Z,16.08
2022-11-16T17:22:58.428Z,28.20
2022-11-16T17:25:26.674Z,32.95
2022-11-16T17:27:55.990Z,35.67
2022-11-16T17:30:23.985Z,54.88
2022-11-16T17:32:52.089Z,45.05
2022-11-16T17:35:20.977Z,40.05
2022-11-16T17:37:48.867Z,57.70
2022-11-16T17:40:17.045Z,27.73
2022-11-16T17:42:44.855Z,38.88
2022-11-16T17:45:14.428Z,37.47
2022-11-16T17:47:42.303Z,57.05
2022-11-16T17:50:11.142Z,46.60
2022-11-16T17:52:38.868Z,35.03
2022-11-16T17:55:08.159Z,103.03
2022-11-16T17:57:35.886Z,86.55
2022-11-16T18:00:04.840Z,88.35
2022-11-16T18:02:34.221Z,48.63
2022-11-16T18:05:02.195Z,69.22
2022-11-16T18:07:33.332Z,56.20
2022-11-16T18:10:01.517Z,49.85
2022-11-16T18:12:29.385Z,83.65
2022-11-16T18:15:26.490Z,62.65
2022-11-16T18:17:47.269Z,28.02
2022-11-16T18:20:15.379Z,19.85
2022-11-16T18:22:43.075Z,11.80
2022-11-16T18:25:11.348Z,16.05
2022-11-16T18:27:39.054Z,12.82
2022-11-16T18:30:08.449Z,52.67
2022-11-16T18:32:36.528Z,63.22
2022-11-16T18:35:09.991Z,44.47
2022-11-16T18:37:37.880Z,48.70
2022-11-16T18:40:06.972Z,23.70
2022-11-16T18:42:34.968Z,34.42
2022-11-16T18:45:03.488Z,16.10
2022-11-16T18:47:31.192Z,20.45
2022-11-16T18:49:59.524Z,25.58
2022-11-16T18:52:28.879Z,25.05
2022-11-16T18:54:56.847Z,28.02
2022-11-16T18:57:24.652Z,28.15
2022-11-16T18:59:53.145Z,29.92
2022-11-16T19:02:21.146Z,37.17
2022-11-16T19:04:49.501Z,20.38
2022-11-16T19:07:17.703Z,18.15
2022-11-16T19:09:47.028Z,20.45
2022-11-16T19:12:14.722Z,11.40
2022-11-16T19:14:42.897Z,24.45
2022-11-16T19:17:10.681Z,18.65
2022-11-16T19:19:38.727Z,23.85
2022-11-16T19:22:06.551Z,16.45
2022-11-16T19:24:34.608Z,20.00
2022-11-16T19:27:03.826Z,36.65
2022-11-16T19:29:31.897Z,18.83
2022-11-16T19:31:59.643Z,53.35
2022-11-16T19:34:32.985Z,38.53
2022-11-16T19:37:01.325Z,43.80
2022-11-16T19:39:29.636Z,37.03
2022-11-16T19:41:57.758Z,28.65
2022-11-16T19:44:27.292Z,18.80
2022-11-16T19:46:56.881Z,22.70
2022-11-16T19:49:24.866Z,13.90
2022-11-16T19:51:53.093Z,37.00
2022-11-16T19:54:21.490Z,23.33
2022-11-16T19:56:54.695Z,11.32
2022-11-16T19:59:23.621Z,15.27
2022-11-16T20:01:52.715Z,12.30
2022-11-16T20:04:20.752Z,15.57
2022-11-16T20:06:49.125Z,15.70
2022-11-16T20:09:17.136Z,15.32
2022-11-16T20:11:44.861Z,18.10
2022-11-16T20:14:14.318Z,14.40
2022-11-16T20:16:44.045Z,15.40
2022-11-16T20:19:14.522Z,15.82
2022-11-16T20:21:44.093Z,23.08
2022-11-16T20:24:13.796Z,34.50
2022-11-16T20:26:43.203Z,20.65
2022-11-16T20:29:12.177Z,16.08
2022-11-16T20:31:42.640Z,16.42
2022-11-16T20:34:14.984Z,14.90
2022-11-16T20:39:14.812Z,17.33
2022-11-16T20:41:43.921Z,12.40
2022-11-16T20:44:16.624Z,17.13
2022-11-16T20:46:45.352Z,13.73
2022-11-16T20:49:15.055Z,19.02
2022-11-16T20:51:42.933Z,20.90
2022-11-16T20:54:11.591Z,16.48
2022-11-16T20:56:39.611Z,17.80
2022-11-16T20:59:07.568Z,13.25
2022-11-16T21:01:35.304Z,15.20
2022-11-16T21:04:05.315Z,16.23
2022-11-16T21:06:34.760Z,13.57
2022-11-16T21:09:04.858Z,10.13
2022-11-16T21:11:54.696Z,12.55
2022-11-16T21:14:22.593Z,11.45
2022-11-16T21:16:50.850Z,12.75
2022-11-16T21:19:18.964Z,9.18
2022-11-16T21:21:48.059Z,11.55
2022-11-16T21:24:16.307Z,8.63
2022-11-16T21:26:44.035Z,13.38
2022-11-16T21:29:11.985Z,13.35
2022-11-16T21:31:39.912Z,15.18
2022-11-16T21:34:08.067Z,11.13
2022-11-16T21:36:36.086Z,5.90
2022-11-16T21:39:05.955Z,6.85
2022-11-16T21:41:33.889Z,6.38
2022-11-16T21:44:01.855Z,6.10
2022-11-16T21:46:29.968Z,8.40
2022-11-16T21:48:58.906Z,7.97
2022-11-16T21:51:27.819Z,5.22
2022-11-16T21:53:56.170Z,5.00
2022-11-16T21:56:26.845Z,5.45
2022-11-16T21:58:55.211Z,6.00
2022-11-16T22:01:24.604Z,6.38
2022-11-16T22:04:07.183Z,8.70
2022-11-16T22:06:52.714Z,5.97
2022-11-16T22:09:20.752Z,8.60
2022-11-16T22:11:50.091Z,8.52
2022-11-16T22:14:18.063Z,5.20
2022-11-16T22:16:45.815Z,5.78
2022-11-16T22:19:14.030Z,5.25
2022-11-16T22:21:41.939Z,5.43
2022-11-16T22:24:09.922Z,6.80
2022-11-16T22:26:39.827Z,4.05
2022-11-16T22:29:09.254Z,5.43
2022-11-16T22:31:37.057Z,5.32
2022-11-16T22:34:05.368Z,4.97
2022-11-16T22:36:33.188Z,6.57
2022-11-16T22:39:01.880Z,4.72
2022-11-16T22:41:29.744Z,6.93
2022-11-16T22:43:58.208Z,6.20
2022-11-16T22:46:27.391Z,5.25
2022-11-16T22:48:55.597Z,3.25
2022-11-16T22:51:25.105Z,4.90
2022-11-16T22:53:54.479Z,4.25
2022-11-16T22:56:22.404Z,4.85
2022-11-16T22:58:50.776Z,4.05
2022-11-16T23:01:19.240Z,4.47
2022-11-16T23:03:49.241Z,3.33
2022-11-16T23:06:17.446Z,6.03
2022-11-16T23:08:45.618Z,4.97
2022-11-16T23:11:32.833Z,6.90
2022-11-16T23:14:19.579Z,6.20
2022-11-16T23:16:47.901Z,6.85
2022-11-16T23:19:37.828Z,4.57
2022-11-16T23:22:23.968Z,3.65
2022-11-16T23:25:10.046Z,4.88
2022-11-16T23:27:41.609Z,4.00
2022-11-16T23:30:13.008Z,4.20
2022-11-16T23:32:42.016Z,3.55
2022-11-16T23:35:11.721Z,4.78
2022-11-16T23:37:51.496Z,5.78
2022-11-16T23:40:20.544Z,6.32
2022-11-16T23:43:05.856Z,6.95
2022-11-16T23:45:34.195Z,8.13
2022-11-16T23:48:02.000Z,8.15
2022-11-16T23:50:31.555Z,10.80
2022-11-16T23:52:59.764Z,6.85
2022-11-16T23:55:28.088Z,6.28
2022-11-16T23:57:56.244Z,9.90
